createdAt,value
2017-10-09T00:06:43.000Z,68.232
2017-10-09T00:16:43.000Z,68.195
2017-10-09T00:26:43.000Z,68.168
2017-10-09T00:36:43.000Z,68.144
2017-10-09T00:46:43.000Z,68.107
2017-10-09T00:56:43.000Z,68.188
2017-10-09T01:06:43.000Z,68.214
2017-10-09T01:16:43.000Z,68.201
2017-10-09T01:26:44.000Z,68.258
2017-10-09T01:36:45.000Z,68.202
2017-10-09T01:46:44.000Z,68.136
2017-10-09T01:56:44.000Z,68.153
2017-10-09T02:06:44.000Z,68.139
2017-10-09T02:16:45.000Z,68.156
2017-10-09T02:26:44.000Z,68.07
2017-10-09T02:36:44.000Z,68.097
2017-10-09T02:46:44.000Z,68.157
2017-10-09T02:56:44.000Z,68.114
2017-10-09T03:06:44.000Z,68.142
2017-10-09T03:16:44.000Z,67.782
2017-10-09T03:26:44.000Z,67.64
2017-10-09T03:36:44.000Z,67.763
2017-10-09T03:46:44.000Z,67.814
2017-10-09T03:56:44.000Z,67.779
2017-10-09T04:06:44.000Z,67.85
2017-10-09T04:16:44.000Z,67.922
2017-10-09T04:26:44.000Z,67.919
2017-10-09T04:36:44.000Z,67.949
2017-10-09T04:46:44.000Z,67.8
2017-10-09T04:56:44.000Z,67.787
2017-10-09T05:06:44.000Z,67.679
2017-10-09T05:16:44.000Z,67.689
2017-10-09T05:26:44.000Z,67.655
2017-10-09T05:36:44.000Z,67.61
2017-10-09T05:46:44.000Z,67.545
2017-10-09T05:56:44.000Z,67.474
2017-10-09T06:06:44.000Z,67.232
2017-10-09T06:16:44.000Z,67.848
2017-10-09T06:26:44.000Z,68.285
2017-10-09T06:36:44.000Z,68.522
2017-10-09T06:46:44.000Z,68.583
2017-10-09T06:56:44.000Z,67.727
2017-10-09T07:06:44.000Z,67.29
2017-10-09T07:16:44.000Z,67.173
2017-10-09T07:26:44.000Z,67.122
2017-10-09T07:36:44.000Z,66.972
2017-10-09T07:46:44.000Z,66.784
2017-10-09T07:56:44.000Z,66.764
2017-10-09T08:06:44.000Z,66.604
2017-10-09T08:16:44.000Z,66.389
2017-10-09T08:26:44.000Z,66.508
2017-10-09T08:36:44.000Z,66.276
2017-10-09T08:46:44.000Z,66.223
2017-10-09T08:56:44.000Z,65.949
2017-10-09T09:06:44.000Z,65.764
2017-10-09T09:16:44.000Z,65.702
2017-10-09T09:26:44.000Z,65.568
2017-10-09T09:36:44.000Z,65.432
2017-10-09T09:46:45.000Z,65.27
2017-10-09T10:06:45.000Z,64.505
2017-10-09T10:16:45.000Z,64.704
2017-10-09T10:26:45.000Z,64.588
2017-10-09T10:36:45.000Z,64.4
2017-10-09T10:46:45.000Z,64.411
2017-10-09T10:56:45.000Z,64.35
2017-10-09T11:06:45.000Z,64.047
2017-10-09T11:16:45.000Z,63.766
2017-10-09T11:26:45.000Z,64.82
2017-10-09T11:36:45.000Z,65.084
2017-10-09T11:46:45.000Z,64.924
2017-10-09T11:56:45.000Z,64.725
2017-10-09T12:06:45.000Z,64.801
2017-10-09T12:16:45.000Z,64.602
2017-10-09T12:26:45.000Z,64.708
2017-10-09T12:36:45.000Z,64.805
2017-10-09T12:46:45.000Z,64.948
2017-10-09T12:56:45.000Z,65.134
2017-10-09T13:06:45.000Z,65.013
2017-10-09T13:16:45.000Z,64.933
2017-10-09T13:26:45.000Z,65.297
2017-10-09T13:36:45.000Z,65.44
2017-10-09T13:46:45.000Z,65.621
2017-10-09T13:56:45.000Z,65.736
2017-10-09T14:06:46.000Z,65.723
2017-10-09T14:16:45.000Z,65.684
2017-10-09T14:26:45.000Z,65.749
2017-10-09T14:46:45.000Z,66.021
2017-10-09T14:56:45.000Z,66.115
2017-10-09T15:06:49.000Z,66.124
2017-10-09T15:16:45.000Z,66.144
2017-10-09T15:26:45.000Z,66.532
2017-10-09T15:36:45.000Z,66.864
2017-10-09T15:46:45.000Z,67.111
2017-10-09T15:56:45.000Z,67.444
2017-10-09T16:06:45.000Z,68.12
2017-10-09T16:16:47.000Z,68.397
2017-10-09T16:26:45.000Z,68.495
2017-10-09T16:36:45.000Z,68.806
2017-10-09T16:46:46.000Z,68.674
2017-10-09T16:56:45.000Z,68.366
2017-10-09T17:06:45.000Z,68.228
2017-10-09T17:16:45.000Z,68.211
2017-10-09T17:26:45.000Z,68.215
2017-10-09T17:36:45.000Z,68.116
2017-10-09T17:46:45.000Z,68.494
2017-10-09T17:56:45.000Z,68.399
2017-10-09T18:06:45.000Z,68.247
2017-10-09T18:16:48.000Z,68.861
2017-10-09T18:26:45.000Z,69.185
2017-10-09T18:36:46.000Z,69.254
2017-10-09T18:46:46.000Z,69.252
2017-10-09T18:56:46.000Z,69.239
2017-10-09T19:06:46.000Z,69.128
2017-10-09T19:16:46.000Z,68.966
2017-10-09T19:26:46.000Z,69.059
2017-10-09T19:36:46.000Z,68.929
2017-10-09T19:46:46.000Z,68.926
2017-10-09T19:56:46.000Z,68.805
2017-10-09T20:06:46.000Z,68.833
2017-10-09T20:16:46.000Z,68.768
2017-10-09T20:26:46.000Z,68.714
2017-10-09T20:36:46.000Z,68.669
2017-10-09T20:46:46.000Z,68.637
2017-10-09T20:56:46.000Z,68.614
2017-10-09T21:06:46.000Z,68.611
2017-10-09T21:16:46.000Z,68.619
2017-10-09T21:26:46.000Z,68.553
2017-10-09T21:36:46.000Z,68.509
2017-10-09T21:46:46.000Z,68.486
2017-10-09T21:56:46.000Z,68.378
2017-10-09T22:06:46.000Z,68.356
2017-10-09T22:16:46.000Z,68.608
2017-10-09T22:26:46.000Z,68.885
2017-10-09T22:36:46.000Z,68.766
2017-10-09T22:46:46.000Z,68.763
2017-10-09T22:56:46.000Z,68.718
2017-10-09T23:06:46.000Z,68.665
2017-10-09T23:16:46.000Z,68.683
2017-10-09T23:26:46.000Z,68.669
2017-10-09T23:36:46.000Z,68.635
2017-10-09T23:46:46.000Z,68.611
2017-10-09T23:56:46.000Z,68.525
